Time;durP1;ratioP1;P1;durP2;ratioP2;P2;SDS_P1;SDS_P2;PMS_P1;PMS_P2;Temp;Humidity;BMP_temperature;BMP_pressure;BME280_temperature;BME280_humidity;BME280_pressure;Samples;Min_cycle;Max_cycle;Signal;HPM_P1;HPM_P2
2019/05/20 00:00:57;;;;;;;2.3;2.1;;;;;;;;;;;;;
2019/05/20 00:03:20;;;;;;;3.5;2.2;;;;;;;;;;;;;
2019/05/20 00:05:53;;;;;;;3.8;2.2;;;;;;;;;;;;;
2019/05/20 00:08:16;;;;;;;2.8;2.4;;;;;;;;;;;;;
2019/05/20 00:10:44;;;;;;;5.2;2.6;;;;;;;;;;;;;
2019/05/20 00:13:07;;;;;;;4.2;3;;;;;;;;;;;;;
2019/05/20 00:15:32;;;;;;;2.9;2.2;;;;;;;;;;;;;
2019/05/20 00:17:58;;;;;;;2.9;2.2;;;;;;;;;;;;;
2019/05/20 00:20:28;;;;;;;2.6;2.1;;;;;;;;;;;;;
2019/05/20 00:22:52;;;;;;;2.3;2.1;;;;;;;;;;;;;
2019/05/20 00:25:14;;;;;;;2.2;2;;;;;;;;;;;;;
2019/05/20 00:27:43;;;;;;;3.8;2.2;;;;;;;;;;;;;
2019/05/20 00:30:10;;;;;;;3;2.1;;;;;;;;;;;;;
2019/05/20 00:32:30;;;;;;;2.5;2.3;;;;;;;;;;;;;
2019/05/20 00:34:55;;;;;;;3.8;2.7;;;;;;;;;;;;;
2019/05/20 00:37:27;;;;;;;2.3;2.1;;;;;;;;;;;;;
2019/05/20 00:39:53;;;;;;;2.9;2.1;;;;;;;;;;;;;
2019/05/20 00:42:20;;;;;;;2.6;2.2;;;;;;;;;;;;;
2019/05/20 00:44:45;;;;;;;3.3;2.1;;;;;;;;;;;;;
2019/05/20 00:47:08;;;;;;;3.9;2.4;;;;;;;;;;;;;
2019/05/20 00:49:37;;;;;;;4.1;2.9;;;;;;;;;;;;;
2019/05/20 00:52:02;;;;;;;5.2;2.8;;;;;;;;;;;;;
2019/05/20 00:54:28;;;;;;;3.3;2.8;;;;;;;;;;;;;
2019/05/20 00:56:50;;;;;;;4.4;3.3;;;;;;;;;;;;;
2019/05/20 00:59:20;;;;;;;4;2.9;;;;;;;;;;;;;
2019/05/20 01:01:45;;;;;;;3.2;2.6;;;;;;;;;;;;;
2019/05/20 01:04:13;;;;;;;4;2.4;;;;;;;;;;;;;
2019/05/20 01:06:37;;;;;;;2.9;2.6;;;;;;;;;;;;;
2019/05/20 01:09:03;;;;;;;2.8;2.5;;;;;;;;;;;;;
2019/05/20 01:11:28;;;;;;;3.2;2.7;;;;;;;;;;;;;
2019/05/20 01:13:54;;;;;;;3.2;2.9;;;;;;;;;;;;;
2019/05/20 01:16:19;;;;;;;3.9;3;;;;;;;;;;;;;
2019/05/20 01:18:50;;;;;;;3.7;2.6;;;;;;;;;;;;;
2019/05/20 01:21:15;;;;;;;3.1;2.3;;;;;;;;;;;;;
2019/05/20 01:23:42;;;;;;;3.5;2.3;;;;;;;;;;;;;
2019/05/20 01:26:13;;;;;;;2.6;2.4;;;;;;;;;;;;;
2019/05/20 01:28:36;;;;;;;4.1;2.5;;;;;;;;;;;;;
2019/05/20 01:31:03;;;;;;;4;2.6;;;;;;;;;;;;;
2019/05/20 01:33:29;;;;;;;3.2;2.9;;;;;;;;;;;;;
2019/05/20 01:36:00;;;;;;;3.3;3;;;;;;;;;;;;;
2019/05/20 01:38:26;;;;;;;4.6;2.8;;;;;;;;;;;;;
2019/05/20 01:40:54;;;;;;;3.5;2.7;;;;;;;;;;;;;
2019/05/20 01:43:17;;;;;;;3.2;2.9;;;;;;;;;;;;;
2019/05/20 01:45:45;;;;;;;3.4;3;;;;;;;;;;;;;
2019/05/20 01:48:07;;;;;;;2.8;2.4;;;;;;;;;;;;;
2019/05/20 01:50:35;;;;;;;3.8;2.8;;;;;;;;;;;;;
2019/05/20 01:52:58;;;;;;;3.2;2.9;;;;;;;;;;;;;
2019/05/20 01:55:24;;;;;;;4.9;3.2;;;;;;;;;;;;;
2019/05/20 01:57:53;;;;;;;4;3.2;;;;;;;;;;;;;
2019/05/20 02:00:16;;;;;;;4;3;;;;;;;;;;;;;
2019/05/20 02:02:44;;;;;;;3.7;2.6;;;;;;;;;;;;;
2019/05/20 02:05:06;;;;;;;2.7;2.5;;;;;;;;;;;;;
2019/05/20 02:07:40;;;;;;;2.6;2.4;;;;;;;;;;;;;
2019/05/20 02:10:01;;;;;;;3.8;2.7;;;;;;;;;;;;;
2019/05/20 02:12:35;;;;;;;3.4;2.9;;;;;;;;;;;;;
2019/05/20 02:15:07;;;;;;;4.7;3;;;;;;;;;;;;;
2019/05/20 02:17:29;;;;;;;3.6;3;;;;;;;;;;;;;
2019/05/20 02:20:00;;;;;;;5.2;3.3;;;;;;;;;;;;;
2019/05/20 02:22:25;;;;;;;4.4;3;;;;;;;;;;;;;
2019/05/20 02:24:50;;;;;;;3.6;3.2;;;;;;;;;;;;;
2019/05/20 02:29:43;;;;;;;3.7;2.9;;;;;;;;;;;;;
2019/05/20 02:32:21;;;;;;;3.5;3.2;;;;;;;;;;;;;
2019/05/20 02:34:35;;;;;;;4.5;3.1;;;;;;;;;;;;;
2019/05/20 02:37:01;;;;;;;5.1;3.1;;;;;;;;;;;;;
2019/05/20 02:39:34;;;;;;;4.8;3.3;;;;;;;;;;;;;
2019/05/20 02:41:55;;;;;;;3.6;3;;;;;;;;;;;;;
2019/05/20 02:44:21;;;;;;;3.3;2.9;;;;;;;;;;;;;
2019/05/20 02:46:50;;;;;;;3;2.7;;;;;;;;;;;;;
2019/05/20 02:49:16;;;;;;;3.7;3.1;;;;;;;;;;;;;
2019/05/20 02:51:40;;;;;;;3.1;2.8;;;;;;;;;;;;;
2019/05/20 02:54:10;;;;;;;3.5;3.2;;;;;;;;;;;;;
2019/05/20 02:56:41;;;;;;;3.7;3.3;;;;;;;;;;;;;
2019/05/20 02:59:06;;;;;;;3.9;3.2;;;;;;;;;;;;;
2019/05/20 03:01:31;;;;;;;4.4;2.8;;;;;;;;;;;;;
2019/05/20 03:03:58;;;;;;;3.5;2.8;;;;;;;;;;;;;
2019/05/20 03:06:21;;;;;;;5.1;3;;;;;;;;;;;;;
2019/05/20 03:08:49;;;;;;;3.9;3.5;;;;;;;;;;;;;
2019/05/20 03:11:21;;;;;;;3.8;3.5;;;;;;;;;;;;;
2019/05/20 03:13:44;;;;;;;4.1;2.9;;;;;;;;;;;;;
2019/05/20 03:16:10;;;;;;;4;3;;;;;;;;;;;;;
2019/05/20 03:18:34;;;;;;;3.2;2.8;;;;;;;;;;;;;
2019/05/20 03:20:59;;;;;;;3.2;2.9;;;;;;;;;;;;;
2019/05/20 03:23:24;;;;;;;4.3;3.1;;;;;;;;;;;;;
2019/05/20 03:25:54;;;;;;;3.1;2.6;;;;;;;;;;;;;
2019/05/20 03:28:20;;;;;;;3;2.7;;;;;;;;;;;;;
2019/05/20 03:30:47;;;;;;;3.4;2.7;;;;;;;;;;;;;
2019/05/20 03:33:10;;;;;;;3.5;3.2;;;;;;;;;;;;;
2019/05/20 03:35:35;;;;;;;3.9;2.9;;;;;;;;;;;;;
2019/05/20 03:37:59;;;;;;;4.6;3.3;;;;;;;;;;;;;
2019/05/20 03:40:25;;;;;;;4.6;3.3;;;;;;;;;;;;;
2019/05/20 03:42:53;;;;;;;3.7;3.1;;;;;;;;;;;;;
2019/05/20 03:45:19;;;;;;;3.4;3;;;;;;;;;;;;;
2019/05/20 03:47:42;;;;;;;3.2;2.9;;;;;;;;;;;;;
2019/05/20 03:50:10;;;;;;;3.4;2.8;;;;;;;;;;;;;
2019/05/20 03:52:33;;;;;;;2.3;2.1;;;;;;;;;;;;;
2019/05/20 03:55:00;;;;;;;3.9;2.3;;;;;;;;;;;;;
2019/05/20 03:57:33;;;;;;;2.8;2.5;;;;;;;;;;;;;
2019/05/20 03:59:51;;;;;;;2.4;2.2;;;;;;;;;;;;;
2019/05/20 04:02:37;;;;;;;4.3;2.4;;;;;;;13.02;83.58594;924.6121;;;;
2019/05/20 04:05:08;;;;;;;3.9;2.4;;;;;;;13.04;83.63477;924.5158;;;;
2019/05/20 04:07:40;;;;;;;3.2;2;;;;;;;12.92;83.63672;924.5428;;;;
2019/05/20 04:10:08;;;;;;;3.3;2.6;;;;;;;12.96;83.89453;924.4829;;;;
2019/05/20 04:12:40;;;;;;;4.1;2.9;;;;;;;13.01;83.6416;924.4938;;;;
2019/05/20 04:15:03;;;;;;;3.2;2.6;;;;;;;13;84.03027;924.538;;;;
2019/05/20 04:17:37;;;;;;;3.7;2.6;;;;;;;13.03;84.15137;924.5334;;;;
2019/05/20 04:20:05;;;;;;;3.1;2.2;;;;;;;13.03;83.79395;924.5639;;;;
2019/05/20 04:22:31;;;;;;;3.1;2.8;;;;;;;13.09;83.56543;924.5178;;;;
2019/05/20 04:25:04;;;;;;;4.6;2.8;;;;;;;13.26;83.26465;924.5394;;;;
2019/05/20 04:27:35;;;;;;;3.8;2.9;;;;;;;13.34;82.95898;924.5247;;;;
2019/05/20 04:29:56;;;;;;;2.9;2.3;;;;;;;13.39;82.1416;924.5306;;;;
2019/05/20 04:32:33;;;;;;;3;2.4;;;;;;;13.46;81.72852;924.4925;;;;
2019/05/20 04:35:16;;;;;;;3.5;2.6;;;;;;;13.42;81.58203;924.5023;;;;
2019/05/20 04:37:45;;;;;;;3.2;2.7;;;;;;;13.48;82.05371;924.5417;;;;
2019/05/20 04:40:12;;;;;;;5.1;2.9;;;;;;;13.36;82.35254;924.4498;;;;
2019/05/20 04:42:42;;;;;;;4;2.7;;;;;;;13.22;82.47461;924.4084;;;;
2019/05/20 04:45:13;;;;;;;5.1;2.6;;;;;;;13.15;83.79395;924.2976;;;;
2019/05/20 04:47:48;;;;;;;3.4;2.7;;;;;;;13.24;83.43164;924.3928;;;;
2019/05/20 04:50:14;;;;;;;3.4;2.4;;;;;;;13.2;83.54004;924.3806;;;;
2019/05/20 04:52:46;;;;;;;4;2.7;;;;;;;12.99;84.46484;924.4151;;;;
2019/05/20 04:55:07;;;;;;;5.8;3.1;;;;;;;13.23;83.59277;924.3986;;;;
2019/05/20 04:57:32;;;;;;;4;2.8;;;;;;;13.13;83.88379;924.4568;;;;
2019/05/20 05:00:19;;;;;;;3.7;3.2;;;;;;;13.26;83.35645;924.4291;;;;
2019/05/20 05:02:52;;;;;;;3.1;2.7;;;;;;;13.39;82.54395;924.4794;;;;
2019/05/20 05:05:25;;;;;;;3.7;2.9;;;;;;;13.27;83.25488;924.4656;;;;
2019/05/20 05:07:51;;;;;;;3.7;2.7;;;;;;;13.27;83.15137;924.4872;;;;
2019/05/20 05:10:23;;;;;;;3.2;2.5;;;;;;;13.26;83.16113;924.5314;;;;
2019/05/20 05:12:55;;;;;;;3;2.4;;;;;;;13;84.24805;924.5036;;;;
2019/05/20 05:15:29;;;;;;;4.7;2.8;;;;;;;13.14;83.90723;924.5248;;;;
2019/05/20 05:18:00;;;;;;;3.6;2.7;;;;;;;13.2;83.41504;924.5291;;;;
2019/05/20 05:20:28;;;;;;;3.2;2.5;;;;;;;13.26;82.94336;924.4754;;;;
2019/05/20 05:22:54;;;;;;;5;2.6;;;;;;;13.32;82.29883;924.4853;;;;
2019/05/20 05:25:22;;;;;;;3.4;2.8;;;;;;;13.35;82.41016;924.5187;;;;
2019/05/20 05:27:56;;;;;;;4.1;2.3;;;;;;;13.07;83.69922;924.5286;;;;
2019/05/20 05:30:26;;;;;;;3.3;2.1;;;;;;;13.02;83.44922;924.5817;;;;
2019/05/20 05:33:01;;;;;;;3.3;1.9;;;;;;;12.9;84.35547;924.6783;;;;
2019/05/20 05:35:27;;;;;;;4.4;2.1;;;;;;;13.01;84.14648;924.7072;;;;
2019/05/20 05:37:54;;;;;;;3.4;1.9;;;;;;;12.85;84.62012;924.7019;;;;
2019/05/20 05:40:27;;;;;;;4.9;2.2;;;;;;;13;83.74316;924.7553;;;;
2019/05/20 05:42:56;;;;;;;2.9;1.9;;;;;;;12.83;84.43262;924.7844;;;;
2019/05/20 05:45:26;;;;;;;2.4;1.9;;;;;;;12.93;84.46387;924.8358;;;;
2019/05/20 05:47:53;;;;;;;3;2.2;;;;;;;13;84.08887;924.7927;;;;
2019/05/20 05:50:22;;;;;;;3.9;2.2;;;;;;;12.92;84.23438;924.8456;;;;
2019/05/20 05:52:50;;;;;;;5.1;3.7;;;;;;;12.95;84.70996;924.7316;;;;
2019/05/20 05:55:16;;;;;;;7;3.8;;;;;;;;;;;;;
2019/05/20 05:57:45;;;;;;;5.5;3.9;;;;;;;;;;;;;
2019/05/20 06:00:17;;;;;;;4.5;3.3;;;;;;;;;;;;;
2019/05/20 06:02:43;;;;;;;4;2.6;;;;;;;;;;;;;
2019/05/20 06:05:09;;;;;;;5.3;3.1;;;;;;;;;;;;;
2019/05/20 06:07:34;;;;;;;4.2;3;;;;;;;;;;;;;
2019/05/20 06:10:00;;;;;;;5;3;;;;;;;;;;;;;
2019/05/20 06:12:26;;;;;;;4.5;2.5;;;;;;;;;;;;;
2019/05/20 06:14:50;;;;;;;3;2.3;;;;;;;;;;;;;
2019/05/20 06:17:18;;;;;;;5;2.1;;;;;;;;;;;;;
2019/05/20 06:19:51;;;;;;;2.5;1.7;;;;;;;;;;;;;
2019/05/20 06:22:08;;;;;;;2.5;2.1;;;;;;;;;;;;;
2019/05/20 06:24:41;;;;;;;2.2;1.6;;;;;;;;;;;;;
2019/05/20 06:27:03;;;;;;;3.6;1.5;;;;;;;;;;;;;
2019/05/20 06:29:28;;;;;;;3.2;2.2;;;;;;;;;;;;;
2019/05/20 06:31:57;;;;;;;3.3;2.4;;;;;;;;;;;;;
2019/05/20 06:34:23;;;;;;;9.8;2.6;;;;;;;;;;;;;
2019/05/20 06:36:56;;;;;;;5.6;2.9;;;;;;;;;;;;;
2019/05/20 06:39:18;;;;;;;5.7;2.8;;;;;;;;;;;;;
2019/05/20 06:41:43;;;;;;;4.8;2.5;;;;;;;;;;;;;
2019/05/20 06:44:14;;;;;;;5;2.9;;;;;;;;;;;;;
2019/05/20 06:51:44;;;;;;;5.5;2.5;;;;;;;;;;;;;
2019/05/20 06:54:10;;;;;;;3.8;2.2;;;;;;;;;;;;;
2019/05/20 06:56:34;;;;;;;3.9;1.9;;;;;;;;;;;;;
2019/05/20 06:59:05;;;;;;;3.4;1.6;;;;;;;;;;;;;
2019/05/20 07:01:28;;;;;;;2.1;1.5;;;;;;;;;;;;;
2019/05/20 07:03:56;;;;;;;3.6;2.1;;;;;;;;;;;;;
2019/05/20 07:06:20;;;;;;;4.2;1.8;;;;;;;;;;;;;
2019/05/20 07:08:45;;;;;;;4.7;1.8;;;;;;;;;;;;;
2019/05/20 07:11:11;;;;;;;2.9;2;;;;;;;;;;;;;
2019/05/20 07:13:41;;;;;;;3.2;2;;;;;;;;;;;;;
2019/05/20 07:16:04;;;;;;;2;1.7;;;;;;;;;;;;;
2019/05/20 07:18:28;;;;;;;3.6;2.1;;;;;;;;;;;;;
2019/05/20 07:20:58;;;;;;;3.5;2.2;;;;;;;;;;;;;
2019/05/20 07:23:21;;;;;;;3.2;1.8;;;;;;;;;;;;;
2019/05/20 07:25:47;;;;;;;3.9;2;;;;;;;;;;;;;
2019/05/20 07:28:16;;;;;;;3.6;1.8;;;;;;;;;;;;;
2019/05/20 07:30:48;;;;;;;5.4;2.5;;;;;;;;;;;;;
2019/05/20 07:33:26;;;;;;;3.4;1.9;;;;;;;;;;;;;
2019/05/20 07:35:46;;;;;;;5.1;2.8;;;;;;;;;;;;;
2019/05/20 07:38:12;;;;;;;4.2;2.1;;;;;;;;;;;;;
2019/05/20 07:40:40;;;;;;;3;1.8;;;;;;;;;;;;;
2019/05/20 07:43:03;;;;;;;3.6;1.9;;;;;;;;;;;;;
2019/05/20 07:45:38;;;;;;;3;1.5;;;;;;;;;;;;;
2019/05/20 07:48:15;;;;;;;3.3;1.5;;;;;;;;;;;;;
2019/05/20 07:50:43;;;;;;;2.8;1.5;;;;;;;;;;;;;
2019/05/20 07:53:12;;;;;;;2.9;1.6;;;;;;;;;;;;;
2019/05/20 07:55:46;;;;;;;2.6;1.5;;;;;;;;;;;;;
2019/05/20 07:58:13;;;;;;;3;1.6;;;;;;;;;;;;;
2019/05/20 08:00:43;;;;;;;3.9;2.6;;;;;;;;;;;;;
2019/05/20 08:03:07;;;;;;;9.5;7;;;;;;;;;;;;;
2019/05/20 08:05:33;;;;;;;2.4;1.7;;;;;;;;;;;;;
2019/05/20 08:07:59;;;;;;;4.1;1.5;;;;;;;;;;;;;
2019/05/20 08:10:33;;;;;;;4.1;1.4;;;;;;;;;;;;;
2019/05/20 08:12:57;;;;;;;4.8;1.9;;;;;;;;;;;;;
2019/05/20 08:15:29;;;;;;;5.1;1.3;;;;;;;;;;;;;
2019/05/20 08:18:01;;;;;;;3.3;1.4;;;;;;;;;;;;;
2019/05/20 08:20:23;;;;;;;2.6;1.4;;;;;;;;;;;;;
2019/05/20 08:22:49;;;;;;;4.1;1.8;;;;;;;;;;;;;
2019/05/20 08:25:15;;;;;;;7.7;2.3;;;;;;;;;;;;;
2019/05/20 08:27:40;;;;;;;3.2;1.6;;;;;;;;;;;;;
2019/05/20 08:30:06;;;;;;;3.5;1.6;;;;;;;;;;;;;
2019/05/20 08:32:35;;;;;;;4.1;1.7;;;;;;;;;;;;;
2019/05/20 08:35:02;;;;;;;5.8;1.7;;;;;;;;;;;;;
2019/05/20 08:37:26;;;;;;;4.2;2.2;;;;;;;;;;;;;
2019/05/20 08:40:01;;;;;;;6.6;2.5;;;;;;;;;;;;;
2019/05/20 08:42:25;;;;;;;7.3;2.6;;;;;;;;;;;;;
2019/05/20 08:44:49;;;;;;;9.6;2.7;;;;;;;;;;;;;
2019/05/20 08:47:14;;;;;;;4.9;1.9;;;;;;;;;;;;;
2019/05/20 08:49:41;;;;;;;5.7;2.4;;;;;;;;;;;;;
2019/05/20 08:52:06;;;;;;;7.1;2.4;;;;;;;;;;;;;
2019/05/20 08:54:34;;;;;;;4;1.4;;;;;;;;;;;;;
2019/05/20 08:57:02;;;;;;;4.1;1.7;;;;;;;;;;;;;
2019/05/20 08:59:25;;;;;;;4.7;1.5;;;;;;;;;;;;;
2019/05/20 09:01:50;;;;;;;4.5;2.1;;;;;;;;;;;;;
2019/05/20 09:04:18;;;;;;;5;2.4;;;;;;;;;;;;;
2019/05/20 09:06:43;;;;;;;5;1.4;;;;;;;;;;;;;
2019/05/20 09:09:10;;;;;;;4.7;1.4;;;;;;;;;;;;;
2019/05/20 09:11:34;;;;;;;6.4;1.8;;;;;;;;;;;;;
2019/05/20 09:14:01;;;;;;;4.6;1.7;;;;;;;;;;;;;
2019/05/20 09:16:25;;;;;;;7.4;2.8;;;;;;;;;;;;;
2019/05/20 09:18:51;;;;;;;6.6;2.7;;;;;;;;;;;;;
2019/05/20 09:21:24;;;;;;;8;1.9;;;;;;;;;;;;;
2019/05/20 09:23:52;;;;;;;8.9;2;;;;;;;;;;;;;
2019/05/20 09:26:17;;;;;;;3.6;1.9;;;;;;;;;;;;;
2019/05/20 09:28:46;;;;;;;6.6;2.1;;;;;;;;;;;;;
2019/05/20 09:31:15;;;;;;;5.2;2.1;;;;;;;;;;;;;
2019/05/20 09:33:36;;;;;;;4.5;2.6;;;;;;;;;;;;;
2019/05/20 09:36:03;;;;;;;4.4;2.3;;;;;;;;;;;;;
2019/05/20 09:38:31;;;;;;;3;2.3;;;;;;;;;;;;;
2019/05/20 09:40:53;;;;;;;3.5;2.1;;;;;;;;;;;;;
2019/05/20 09:43:18;;;;;;;2.9;1.8;;;;;;;;;;;;;
2019/05/20 09:45:49;;;;;;;3.8;2.9;;;;;;;;;;;;;
2019/05/20 09:48:18;;;;;;;3.4;1.3;;;;;;;;;;;;;
2019/05/20 09:50:42;;;;;;;6;1.4;;;;;;;;;;;;;
2019/05/20 09:53:09;;;;;;;7.3;1.4;;;;;;;;;;;;;
2019/05/20 09:55:36;;;;;;;3.7;1.2;;;;;;;;;;;;;
2019/05/20 09:58:06;;;;;;;6.8;1.3;;;;;;;;;;;;;
2019/05/20 10:00:36;;;;;;;3.5;1.3;;;;;;;;;;;;;
2019/05/20 10:03:10;;;;;;;3.3;1;;;;;;;;;;;;;
2019/05/20 10:05:30;;;;;;;2.1;0.8;;;;;;;;;;;;;
2019/05/20 10:07:52;;;;;;;2.4;0.9;;;;;;;;;;;;;
2019/05/20 10:10:19;;;;;;;4.9;0.9;;;;;;;;;;;;;
2019/05/20 10:12:47;;;;;;;9.2;1.4;;;;;;;;;;;;;
2019/05/20 10:15:10;;;;;;;4.8;1.2;;;;;;;;;;;;;
2019/05/20 10:17:36;;;;;;;3.2;1;;;;;;;;;;;;;
2019/05/20 10:20:05;;;;;;;1.7;0.7;;;;;;;;;;;;;
2019/05/20 10:22:30;;;;;;;3.6;1.3;;;;;;;;;;;;;
2019/05/20 10:24:53;;;;;;;2.8;1;;;;;;;;;;;;;
2019/05/20 10:27:17;;;;;;;1.8;0.8;;;;;;;;;;;;;
2019/05/20 10:29:45;;;;;;;7.4;1;;;;;;;;;;;;;
2019/05/20 10:32:10;;;;;;;5;0.8;;;;;;;;;;;;;
2019/05/20 10:34:45;;;;;;;2.8;0.7;;;;;;;;;;;;;
2019/05/20 10:37:15;;;;;;;3.3;0.9;;;;;;;;;;;;;
2019/05/20 10:39:39;;;;;;;2;0.7;;;;;;;;;;;;;
2019/05/20 10:42:12;;;;;;;2.1;0.6;;;;;;;;;;;;;
2019/05/20 10:44:34;;;;;;;6.5;0.8;;;;;;;;;;;;;
2019/05/20 10:47:00;;;;;;;3.7;0.8;;;;;;;;;;;;;
2019/05/20 10:49:31;;;;;;;1.4;0.6;;;;;;;;;;;;;
2019/05/20 10:51:55;;;;;;;2.2;0.7;;;;;;;;;;;;;
2019/05/20 10:54:23;;;;;;;2.5;1;;;;;;;;;;;;;
2019/05/20 10:56:45;;;;;;;3.8;0.7;;;;;;;;;;;;;
2019/05/20 10:59:14;;;;;;;2.5;0.7;;;;;;;;;;;;;
2019/05/20 11:01:47;;;;;;;2.4;1.2;;;;;;;;;;;;;
2019/05/20 11:04:14;;;;;;;16.8;12;;;;;;;;;;;;;
2019/05/20 11:06:40;;;;;;;28.6;18.4;;;;;;;;;;;;;
2019/05/20 11:09:05;;;;;;;23.7;14;;;;;;;;;;;;;
2019/05/20 11:11:40;;;;;;;35.9;23.9;;;;;;;;;;;;;
2019/05/20 11:14:01;;;;;;;14.8;10.5;;;;;;;;;;;;;
2019/05/20 11:16:28;;;;;;;13.6;9.8;;;;;;;;;;;;;
2019/05/20 11:18:53;;;;;;;16.1;11.6;;;;;;;;;;;;;
2019/05/20 11:21:20;;;;;;;13.6;9.1;;;;;;;;;;;;;
2019/05/20 11:23:48;;;;;;;2.7;2.2;;;;;;;;;;;;;
2019/05/20 11:26:14;;;;;;;3.1;2.3;;;;;;;;;;;;;
2019/05/20 11:28:47;;;;;;;1.3;1;;;;;;;;;;;;;
2019/05/20 11:31:08;;;;;;;2.1;1.2;;;;;;;;;;;;;
2019/05/20 11:33:34;;;;;;;2.7;1.4;;;;;;;;;;;;;
2019/05/20 11:36:01;;;;;;;2.7;1.3;;;;;;;;;;;;;
2019/05/20 11:38:25;;;;;;;2.6;1.3;;;;;;;;;;;;;
2019/05/20 11:40:52;;;;;;;2.7;0.8;;;;;;;;;;;;;
2019/05/20 11:43:19;;;;;;;2.4;1.6;;;;;;;;;;;;;
2019/05/20 11:45:46;;;;;;;3.6;2.1;;;;;;;;;;;;;
2019/05/20 11:48:10;;;;;;;5.3;3.8;;;;;;;;;;;;;
2019/05/20 11:50:37;;;;;;;4.6;2.9;;;;;;;;;;;;;
2019/05/20 11:53:01;;;;;;;5.7;3.3;;;;;;;;;;;;;
2019/05/20 11:55:26;;;;;;;3;1;;;;;;;;;;;;;
2019/05/20 11:57:56;;;;;;;2.5;1.8;;;;;;;;;;;;;
2019/05/20 12:00:23;;;;;;;2.7;1.5;;;;;;;;;;;;;
2019/05/20 12:02:50;;;;;;;5.3;1.9;;;;;;;;;;;;;
2019/05/20 12:05:14;;;;;;;3.6;2.1;;;;;;;;;;;;;
2019/05/20 12:07:38;;;;;;;3;1.7;;;;;;;;;;;;;
2019/05/20 12:10:06;;;;;;;3.8;1.8;;;;;;;;;;;;;
2019/05/20 12:12:42;;;;;;;4;2;;;;;;;;;;;;;
2019/05/20 12:15:25;;;;;;;2.7;1.2;;;;;;;;;;;;;
2019/05/20 12:17:55;;;;;;;1.7;0.9;;;;;;;;;;;;;
2019/05/20 12:20:21;;;;;;;1.8;1;;;;;;;;;;;;;
2019/05/20 12:22:48;;;;;;;2.5;0.8;;;;;;;;;;;;;
2019/05/20 12:25:10;;;;;;;2.1;0.9;;;;;;;;;;;;;
2019/05/20 12:27:46;;;;;;;2.1;1;;;;;;;;;;;;;
2019/05/20 12:30:13;;;;;;;2.9;0.9;;;;;;;;;;;;;
2019/05/20 12:32:36;;;;;;;1.3;0.9;;;;;;;;;;;;;
2019/05/20 12:35:03;;;;;;;1.2;0.7;;;;;;;;;;;;;
2019/05/20 12:37:31;;;;;;;2.2;1.1;;;;;;;;;;;;;
2019/05/20 12:40:04;;;;;;;2.4;1;;;;;;;;;;;;;
2019/05/20 12:42:29;;;;;;;2.7;1.4;;;;;;;;;;;;;
2019/05/20 12:44:54;;;;;;;4.7;1.5;;;;;;;;;;;;;
2019/05/20 12:47:24;;;;;;;1.8;1.1;;;;;;;;;;;;;
2019/05/20 12:49:45;;;;;;;1.9;1.1;;;;;;;;;;;;;
2019/05/20 12:52:11;;;;;;;4.4;1.4;;;;;;;;;;;;;
2019/05/20 12:54:39;;;;;;;2.6;1.1;;;;;;;;;;;;;
2019/05/20 12:57:04;;;;;;;3.4;1.1;;;;;;;;;;;;;
2019/05/20 12:59:29;;;;;;;1.8;1.3;;;;;;;;;;;;;
2019/05/20 13:01:57;;;;;;;2.1;1.1;;;;;;;;;;;;;
2019/05/20 13:04:23;;;;;;;1.9;1.2;;;;;;;;;;;;;
2019/05/20 13:06:49;;;;;;;1.7;1;;;;;;;;;;;;;
2019/05/20 13:09:16;;;;;;;2.6;1.2;;;;;;;;;;;;;
2019/05/20 13:11:40;;;;;;;2.2;1.4;;;;;;;;;;;;;
2019/05/20 13:14:07;;;;;;;5.1;2.8;;;;;;;;;;;;;
2019/05/20 13:16:34;;;;;;;2.9;2;;;;;;;;;;;;;
2019/05/20 13:19:01;;;;;;;10.7;5.9;;;;;;;;;;;;;
2019/05/20 13:21:28;;;;;;;5.1;2.8;;;;;;;;;;;;;
2019/05/20 13:23:52;;;;;;;9.2;5.4;;;;;;;;;;;;;
2019/05/20 13:26:16;;;;;;;6.9;4.2;;;;;;;;;;;;;
2019/05/20 13:28:42;;;;;;;12.8;8.7;;;;;;;;;;;;;
2019/05/20 13:31:14;;;;;;;4;2.6;;;;;;;;;;;;;
2019/05/20 13:33:33;;;;;;;0.8;0.5;;;;;;;;;;;;;
2019/05/20 13:35:58;;;;;;;2.2;1.1;;;;;;;;;;;;;
2019/05/20 13:38:24;;;;;;;1.7;1.1;;;;;;;;;;;;;
2019/05/20 13:40:54;;;;;;;3.1;1.3;;;;;;;;;;;;;
2019/05/20 13:43:20;;;;;;;1.8;0.9;;;;;;;;;;;;;
2019/05/20 13:45:47;;;;;;;3.2;1.4;;;;;;;;;;;;;
2019/05/20 13:48:09;;;;;;;2.2;1.2;;;;;;;;;;;;;
2019/05/20 13:50:35;;;;;;;2.8;1.3;;;;;;;;;;;;;
2019/05/20 13:53:00;;;;;;;2.8;1.8;;;;;;;;;;;;;
2019/05/20 13:55:30;;;;;;;1.8;1.1;;;;;;;;;;;;;
2019/05/20 13:57:51;;;;;;;5.1;1.3;;;;;;;;;;;;;
2019/05/20 14:00:16;;;;;;;1.9;1.2;;;;;;;;;;;;;
2019/05/20 14:02:42;;;;;;;5.1;1.5;;;;;;;;;;;;;
2019/05/20 14:05:10;;;;;;;3.1;1.7;;;;;;;;;;;;;
2019/05/20 14:07:37;;;;;;;5.4;2.6;;;;;;;;;;;;;
2019/05/20 14:09:58;;;;;;;4.7;2.8;;;;;;;;;;;;;
2019/05/20 14:12:31;;;;;;;3.9;1.4;;;;;;;;;;;;;
2019/05/20 14:15:06;;;;;;;18.5;10.6;;;;;;;;;;;;;
2019/05/20 14:17:26;;;;;;;5.5;3.4;;;;;;;;;;;;;
2019/05/20 14:19:50;;;;;;;5.1;1.7;;;;;;;;;;;;;
2019/05/20 14:22:15;;;;;;;2.9;2;;;;;;;;;;;;;
2019/05/20 14:24:43;;;;;;;2.3;1.6;;;;;;;;;;;;;
2019/05/20 14:27:13;;;;;;;2.5;1.4;;;;;;;;;;;;;
2019/05/20 14:29:38;;;;;;;2.5;1.7;;;;;;;;;;;;;
2019/05/20 14:32:05;;;;;;;3.6;2.1;;;;;;;;;;;;;
2019/05/20 14:34:29;;;;;;;2.4;1.5;;;;;;;;;;;;;
2019/05/20 14:36:56;;;;;;;2.4;1.4;;;;;;;;;;;;;
2019/05/20 14:39:23;;;;;;;3.3;1;;;;;;;;;;;;;
2019/05/20 14:41:46;;;;;;;2;1.1;;;;;;;;;;;;;
2019/05/20 14:44:14;;;;;;;3.4;1.6;;;;;;;;;;;;;
2019/05/20 14:46:40;;;;;;;4.9;2;;;;;;;;;;;;;
2019/05/20 14:49:04;;;;;;;3.6;1.6;;;;;;;;;;;;;
2019/05/20 14:51:31;;;;;;;3.3;1.7;;;;;;;;;;;;;
2019/05/20 14:53:58;;;;;;;4.8;1.5;;;;;;;;;;;;;
2019/05/20 14:56:21;;;;;;;2.5;1.1;;;;;;;;;;;;;
2019/05/20 14:58:47;;;;;;;2.2;1.2;;;;;;;;;;;;;
2019/05/20 15:01:19;;;;;;;2.2;0.9;;;;;;;;;;;;;
2019/05/20 15:03:39;;;;;;;1.7;1;;;;;;;;;;;;;
2019/05/20 15:06:06;;;;;;;2.9;1;;;;;;;;;;;;;
2019/05/20 15:08:32;;;;;;;2.2;1.2;;;;;;;;;;;;;
2019/05/20 15:10:57;;;;;;;2.5;1.5;;;;;;;;;;;;;
2019/05/20 15:13:22;;;;;;;2.8;1.3;;;;;;;;;;;;;
2019/05/20 15:15:51;;;;;;;4.4;2.1;;;;;;;;;;;;;
2019/05/20 15:18:14;;;;;;;2.5;2.1;;;;;;;;;;;;;
2019/05/20 15:20:40;;;;;;;3.3;2.5;;;;;;;;;;;;;
2019/05/20 15:23:12;;;;;;;4;1.5;;;;;;;;;;;;;
2019/05/20 15:25:34;;;;;;;2.5;1.4;;;;;;;;;;;;;
2019/05/20 15:28:04;;;;;;;1.7;0.9;;;;;;;;;;;;;
2019/05/20 15:30:29;;;;;;;2.9;1.3;;;;;;;;;;;;;
2019/05/20 15:32:53;;;;;;;2.8;1.5;;;;;;;;;;;;;
2019/05/20 15:35:21;;;;;;;2.1;1.4;;;;;;;;;;;;;
2019/05/20 15:37:49;;;;;;;2.8;1.2;;;;;;;;;;;;;
2019/05/20 15:40:20;;;;;;;1.8;1.2;;;;;;;;;;;;;
2019/05/20 15:42:52;;;;;;;3;1.2;;;;;;;;;;;;;
2019/05/20 15:45:16;;;;;;;2.1;1.1;;;;;;;;;;;;;
2019/05/20 15:47:42;;;;;;;2.1;0.9;;;;;;;;;;;;;
2019/05/20 15:50:08;;;;;;;1.8;0.9;;;;;;;;;;;;;
2019/05/20 15:52:34;;;;;;;1;0.8;;;;;;;;;;;;;
2019/05/20 15:54:59;;;;;;;2.1;1.1;;;;;;;;;;;;;
2019/05/20 15:57:26;;;;;;;2.2;0.8;;;;;;;;;;;;;
2019/05/20 15:59:49;;;;;;;1.3;0.8;;;;;;;;;;;;;
2019/05/20 16:02:16;;;;;;;1.5;0.9;;;;;;;;;;;;;
2019/05/20 16:04:41;;;;;;;1.3;0.9;;;;;;;;;;;;;
2019/05/20 16:07:07;;;;;;;1.6;0.9;;;;;;;;;;;;;
2019/05/20 16:09:32;;;;;;;3.3;1;;;;;;;;;;;;;
2019/05/20 16:11:59;;;;;;;3.2;1.3;;;;;;;;;;;;;
2019/05/20 16:14:25;;;;;;;1.9;1.6;;;;;;;;;;;;;
2019/05/20 16:16:50;;;;;;;3.2;1.7;;;;;;;;;;;;;
2019/05/20 16:19:14;;;;;;;4;1.8;;;;;;;;;;;;;
2019/05/20 16:21:49;;;;;;;3.6;1.4;;;;;;;;;;;;;
2019/05/20 16:24:16;;;;;;;4;1.6;;;;;;;;;;;;;
2019/05/20 16:26:40;;;;;;;3.5;1.6;;;;;;;;;;;;;
2019/05/20 16:29:06;;;;;;;1.6;1.1;;;;;;;;;;;;;
2019/05/20 16:31:34;;;;;;;3.1;1.6;;;;;;;;;;;;;
2019/05/20 16:33:59;;;;;;;3;1.5;;;;;;;;;;;;;
2019/05/20 16:36:25;;;;;;;2.9;1.2;;;;;;;;;;;;;
2019/05/20 16:38:52;;;;;;;2.4;1.4;;;;;;;;;;;;;
2019/05/20 16:41:16;;;;;;;2.4;1.5;;;;;;;;;;;;;
2019/05/20 16:43:42;;;;;;;2.4;1.5;;;;;;;;;;;;;
2019/05/20 16:46:11;;;;;;;2;1.2;;;;;;;;;;;;;
2019/05/20 16:48:35;;;;;;;1.6;1.1;;;;;;;;;;;;;
2019/05/20 16:50:59;;;;;;;8.5;7.6;;;;;;;;;;;;;
2019/05/20 16:53:43;;;;;;;2.2;1.6;;;;;;;;;;;;;
2019/05/20 17:13:25;;;;;;;2.2;1.3;;;;;;;;;;;;;
2019/05/20 17:16:08;;;;;;;3.4;1.4;;;;;;;;;;;;;
2019/05/20 17:18:19;;;;;;;2.4;1.4;;;;;;;;;;;;;
2019/05/20 17:20:43;;;;;;;3;1.6;;;;;;;;;;;;;
2019/05/20 17:23:13;;;;;;;2.4;1.8;;;;;;;;;;;;;
2019/05/20 17:25:38;;;;;;;3.3;2;;;;;;;;;;;;;
2019/05/20 17:28:03;;;;;;;5.5;2.5;;;;;;;;;;;;;
2019/05/20 17:30:35;;;;;;;2.3;1.7;;;;;;;;;;;;;
2019/05/20 17:32:57;;;;;;;3.3;1.9;;;;;;;;;;;;;
2019/05/20 17:35:22;;;;;;;3.3;1.9;;;;;;;;;;;;;
2019/05/20 17:37:51;;;;;;;3.2;1.8;;;;;;;;;;;;;
2019/05/20 17:40:12;;;;;;;3.8;1.8;;;;;;;;;;;;;
2019/05/20 17:42:38;;;;;;;3;1.8;;;;;;;;;;;;;
2019/05/20 17:45:06;;;;;;;3;2.1;;;;;;;;;;;;;
2019/05/20 17:47:29;;;;;;;3.1;2;;;;;;;;;;;;;
2019/05/20 17:49:54;;;;;;;2.9;1.8;;;;;;;;;;;;;
2019/05/20 17:52:19;;;;;;;4.4;2;;;;;;;;;;;;;
2019/05/20 17:54:47;;;;;;;6.4;1.8;;;;;;;;;;;;;
2019/05/20 17:57:12;;;;;;;3.9;2;;;;;;;;;;;;;
2019/05/20 17:59:35;;;;;;;4.2;1.8;;;;;;;;;;;;;
2019/05/20 18:02:07;;;;;;;3.4;1.7;;;;;;;;;;;;;
2019/05/20 18:04:28;;;;;;;2.4;1.9;;;;;;;;;;;;;
2019/05/20 18:06:53;;;;;;;3.4;2.2;;;;;;;;;;;;;
2019/05/20 18:09:19;;;;;;;4.6;3;;;;;;;;;;;;;
2019/05/20 18:11:52;;;;;;;5;2.8;;;;;;;;;;;;;
2019/05/20 18:14:10;;;;;;;4.3;2.5;;;;;;;;;;;;;
2019/05/20 18:16:35;;;;;;;5.4;2.5;;;;;;;;;;;;;
2019/05/20 18:19:09;;;;;;;2.1;1.5;;;;;;;;;;;;;
2019/05/20 18:21:29;;;;;;;2.4;1.5;;;;;;;;;;;;;
2019/05/20 18:23:52;;;;;;;3.3;2.1;;;;;;;;;;;;;
2019/05/20 18:26:18;;;;;;;2.4;1.7;;;;;;;;;;;;;
2019/05/20 18:28:44;;;;;;;3.4;1.4;;;;;;;;;;;;;
2019/05/20 18:31:13;;;;;;;2.2;1.3;;;;;;;;;;;;;
2019/05/20 18:33:34;;;;;;;2.5;1.5;;;;;;;;;;;;;
2019/05/20 18:35:59;;;;;;;2.3;1.6;;;;;;;;;;;;;
2019/05/20 18:38:26;;;;;;;3.7;1.7;;;;;;;;;;;;;
2019/05/20 18:40:51;;;;;;;4.1;1.9;;;;;;;;;;;;;
2019/05/20 18:43:15;;;;;;;3.1;1.8;;;;;;;;;;;;;
2019/05/20 18:45:40;;;;;;;2.8;2;;;;;;;;;;;;;
2019/05/20 18:48:09;;;;;;;2.9;1.7;;;;;;;;;;;;;
2019/05/20 18:50:33;;;;;;;4.8;2.4;;;;;;;;;;;;;
2019/05/20 18:52:58;;;;;;;3.1;1.8;;;;;;;;;;;;;
2019/05/20 18:55:22;;;;;;;2.2;1.8;;;;;;;;;;;;;
2019/05/20 18:57:50;;;;;;;3.4;2.2;;;;;;;;;;;;;
2019/05/20 19:00:21;;;;;;;4.5;2.5;;;;;;;;;;;;;
2019/05/20 19:02:46;;;;;;;2.7;1.5;;;;;;;;;;;;;
2019/05/20 19:05:12;;;;;;;1.4;1;;;;;;;;;;;;;
2019/05/20 19:07:40;;;;;;;2.2;1.3;;;;;;;;;;;;;
2019/05/20 19:10:05;;;;;;;1.6;1.2;;;;;;;;;;;;;
2019/05/20 19:12:46;;;;;;;2.3;1.3;;;;;;;;;;;;;
2019/05/20 19:15:11;;;;;;;2.8;1.2;;;;;;;;;;;;;
2019/05/20 19:17:34;;;;;;;1.6;1.1;;;;;;;;;;;;;
2019/05/20 19:20:02;;;;;;;1.8;1.2;;;;;;;;;;;;;
2019/05/20 19:22:26;;;;;;;2.5;1.1;;;;;;;;;;;;;
2019/05/20 19:24:53;;;;;;;2.2;1.1;;;;;;;;;;;;;
2019/05/20 19:27:17;;;;;;;1.8;1.3;;;;;;;;;;;;;
2019/05/20 19:29:43;;;;;;;3.1;2;;;;;;;;;;;;;
2019/05/20 19:32:10;;;;;;;2.7;1.7;;;;;;;;;;;;;
2019/05/20 19:34:36;;;;;;;2.7;1.5;;;;;;;;;;;;;
2019/05/20 19:37:02;;;;;;;2.6;1.7;;;;;;;;;;;;;
2019/05/20 19:39:30;;;;;;;2;1.7;;;;;;;;;;;;;
2019/05/20 19:41:57;;;;;;;4.9;2;;;;;;;;;;;;;
2019/05/20 19:44:24;;;;;;;3.6;2.3;;;;;;;;;;;;;
2019/05/20 19:46:54;;;;;;;2.5;1.5;;;;;;;;;;;;;
2019/05/20 19:49:17;;;;;;;15.4;5.6;;;;;;;;;;;;;
2019/05/20 19:51:42;;;;;;;10.6;5.1;;;;;;;;;;;;;
2019/05/20 19:54:06;;;;;;;6.1;4.9;;;;;;;;;;;;;
2019/05/20 19:56:38;;;;;;;8.9;5;;;;;;;;;;;;;
2019/05/20 19:58:57;;;;;;;12.7;6.2;;;;;;;;;;;;;
2019/05/20 20:01:24;;;;;;;12.2;5.6;;;;;;;;;;;;;
2019/05/20 20:03:59;;;;;;;9.3;4.7;;;;;;;;;;;;;
2019/05/20 20:06:26;;;;;;;13.9;7;;;;;;;;;;;;;
2019/05/20 20:08:51;;;;;;;8.7;4.8;;;;;;;;;;;;;
2019/05/20 20:11:15;;;;;;;2.3;1.4;;;;;;;;;;;;;
2019/05/20 20:13:43;;;;;;;2.3;1.7;;;;;;;;;;;;;
2019/05/20 20:16:10;;;;;;;2.3;1.3;;;;;;;;;;;;;
2019/05/20 20:18:31;;;;;;;1.8;1;;;;;;;;;;;;;
2019/05/20 20:20:58;;;;;;;1.2;0.8;;;;;;;;;;;;;
2019/05/20 20:23:24;;;;;;;1.1;0.9;;;;;;;;;;;;;